createdAt,value
2023-11-12T00:04:08.127Z,4.60
2023-11-12T00:09:30.229Z,4.50
2023-11-12T00:14:52.099Z,4.50
2023-11-12T00:20:14.828Z,4.40
2023-11-12T00:25:36.900Z,4.30
2023-11-12T00:30:58.817Z,4.30
2023-11-12T00:36:20.989Z,4.30
2023-11-12T00:41:43.183Z,4.30
2023-11-12T00:47:05.045Z,4.20
2023-11-12T00:52:26.520Z,4.30
2023-11-12T00:57:48.115Z,4.30
2023-11-12T01:03:11.807Z,4.40
2023-11-12T01:08:33.300Z,4.30
2023-11-12T01:13:55.301Z,4.30
2023-11-12T01:19:17.651Z,4.30
2023-11-12T01:24:39.328Z,4.30
2023-11-12T01:30:00.768Z,4.40
2023-11-12T01:35:22.489Z,4.30
2023-11-12T01:40:44.750Z,4.30
2023-11-12T01:46:08.681Z,4.20
2023-11-12T01:51:32.446Z,4.30
2023-11-12T01:56:56.718Z,4.20
2023-11-12T02:02:19.124Z,4.30
2023-11-12T02:07:47.107Z,4.30
2023-11-12T02:13:09.013Z,4.40
2023-11-12T02:18:30.791Z,4.30
2023-11-12T02:23:52.516Z,4.30
2023-11-12T02:29:14.094Z,4.20
2023-11-12T02:34:36.518Z,4.20
2023-11-12T02:39:58.144Z,4.20
2023-11-12T02:45:19.862Z,4.30
2023-11-12T02:50:41.526Z,4.30
2023-11-12T02:56:03.343Z,4.30
2023-11-12T03:01:26.118Z,4.40
2023-11-12T03:06:49.282Z,4.40
2023-11-12T03:12:11.525Z,4.50
2023-11-12T03:17:35.477Z,4.50
2023-11-12T03:22:58.032Z,4.50
2023-11-12T03:28:19.858Z,4.60
2023-11-12T03:33:41.426Z,4.50
2023-11-12T03:39:03.406Z,4.50
2023-11-12T03:44:25.146Z,4.50
2023-11-12T03:49:46.710Z,4.60
2023-11-12T03:55:08.563Z,4.60
2023-11-12T04:00:30.355Z,4.60
2023-11-12T04:05:51.846Z,4.70
2023-11-12T04:11:13.618Z,4.70
2023-11-12T04:16:36.075Z,4.70
2023-11-12T04:21:57.855Z,4.80
2023-11-12T04:27:19.774Z,4.70
2023-11-12T04:32:41.750Z,4.70
2023-11-12T04:38:04.561Z,4.70
2023-11-12T04:43:26.389Z,4.70
2023-11-12T04:48:48.430Z,4.70
2023-11-12T04:54:10.370Z,4.70
2023-11-12T04:59:32.325Z,4.70
2023-11-12T05:04:53.688Z,4.60
2023-11-12T05:10:15.411Z,4.80
2023-11-12T05:15:37.510Z,4.80
2023-11-12T05:20:59.365Z,4.70
2023-11-12T05:26:21.029Z,4.70
2023-11-12T05:31:42.875Z,4.80
2023-11-12T05:37:07.582Z,4.80
2023-11-12T05:42:29.168Z,4.70
2023-11-12T05:47:50.671Z,4.70
2023-11-12T05:53:12.239Z,4.80
2023-11-12T05:58:34.065Z,4.70
2023-11-12T06:03:57.139Z,4.80
2023-11-12T06:09:19.013Z,4.70
2023-11-12T06:14:40.612Z,4.70
2023-11-12T06:20:04.749Z,4.90
2023-11-12T06:25:26.535Z,4.90
2023-11-12T06:30:47.897Z,5.00
2023-11-12T06:36:11.018Z,4.80
2023-11-12T06:41:34.205Z,4.80
2023-11-12T06:46:56.471Z,4.80
2023-11-12T06:52:19.041Z,4.90
2023-11-12T06:57:42.059Z,4.80
2023-11-12T07:03:03.670Z,4.90
2023-11-12T07:08:25.392Z,4.90
2023-11-12T07:13:47.172Z,4.90
2023-11-12T07:19:09.187Z,4.80
2023-11-12T07:24:30.607Z,4.80
2023-11-12T07:29:52.080Z,4.90
2023-11-12T07:35:16.475Z,5.00
2023-11-12T07:40:38.243Z,5.00
2023-11-12T07:45:59.800Z,5.00
2023-11-12T07:51:21.551Z,5.10
2023-11-12T07:56:43.172Z,5.20
2023-11-12T08:02:05.048Z,5.10
2023-11-12T08:07:26.560Z,5.20
2023-11-12T08:12:48.117Z,5.30
2023-11-12T08:18:10.259Z,5.50
2023-11-12T08:23:32.022Z,5.50
2023-11-12T08:28:54.630Z,5.60
2023-11-12T08:34:15.976Z,5.90
2023-11-12T08:39:37.841Z,6.10
2023-11-12T08:44:59.743Z,6.30
2023-11-12T08:50:21.313Z,6.50
2023-11-12T08:55:44.712Z,6.50
2023-11-12T09:01:11.555Z,6.80
2023-11-12T09:06:33.120Z,6.80
2023-11-12T09:11:54.674Z,7.00
2023-11-12T09:17:16.515Z,7.30
2023-11-12T09:22:38.365Z,7.50
2023-11-12T09:28:00.256Z,7.50
2023-11-12T09:33:22.205Z,7.60
2023-11-12T09:38:43.743Z,7.70
2023-11-12T09:44:07.366Z,7.50
2023-11-12T09:49:30.409Z,7.60
2023-11-12T09:54:53.254Z,7.70
2023-11-12T10:00:18.527Z,8.00
2023-11-12T10:05:40.566Z,8.10
2023-11-12T10:11:23.264Z,8.50
2023-11-12T10:16:47.742Z,8.70
2023-11-12T10:22:10.688Z,8.80
2023-11-12T10:27:32.304Z,9.10
2023-11-12T10:32:53.878Z,9.10
2023-11-12T10:38:19.746Z,9.10
2023-11-12T10:43:56.025Z,8.70
2023-11-12T10:49:17.493Z,8.60
2023-11-12T10:54:41.179Z,8.20
2023-11-12T11:00:11.832Z,7.90
2023-11-12T11:05:33.446Z,7.60
2023-11-12T11:10:56.173Z,7.80
2023-11-12T11:16:46.301Z,7.70
2023-11-12T11:22:28.350Z,7.50
2023-11-12T11:27:53.368Z,7.50
2023-11-12T11:33:15.933Z,7.50
2023-11-12T11:38:38.060Z,7.50
2023-11-12T11:43:59.828Z,7.50
2023-11-12T11:49:21.989Z,7.50
2023-11-12T11:54:44.304Z,7.50
2023-11-12T12:00:06.035Z,7.40
2023-11-12T12:05:32.330Z,7.10
2023-11-12T12:10:54.207Z,7.40
2023-11-12T12:16:25.604Z,7.40
2023-11-12T12:21:53.830Z,7.40
2023-11-12T12:27:15.200Z,7.40
2023-11-12T12:32:38.438Z,7.20
2023-11-12T12:38:08.426Z,7.30
2023-11-12T12:43:52.082Z,7.20
2023-11-12T12:49:28.475Z,7.20
2023-11-12T12:54:49.998Z,7.50
2023-11-12T13:00:13.223Z,7.50
2023-11-12T13:05:34.986Z,7.50
2023-11-12T13:10:56.505Z,7.60
2023-11-12T13:16:18.136Z,7.60
2023-11-12T13:21:53.941Z,7.50
2023-11-12T13:27:21.132Z,7.60
2023-11-12T13:32:43.278Z,7.60
2023-11-12T13:38:04.893Z,7.60
2023-11-12T13:43:26.648Z,7.50
2023-11-12T13:48:49.618Z,7.60
2023-11-12T13:54:12.072Z,7.60
2023-11-12T13:59:33.766Z,7.40
2023-11-12T14:04:55.338Z,7.50
2023-11-12T14:10:19.668Z,7.50
2023-11-12T14:15:41.793Z,7.40
2023-11-12T14:21:03.472Z,7.50
2023-11-12T14:26:25.609Z,7.40
2023-11-12T14:31:47.553Z,7.10
2023-11-12T14:37:09.299Z,7.00
2023-11-12T14:42:31.635Z,7.00
2023-11-12T14:47:53.673Z,7.10
2023-11-12T14:53:15.190Z,7.00
2023-11-12T14:58:38.269Z,6.80
2023-11-12T15:04:00.025Z,6.90
2023-11-12T15:09:22.016Z,6.70
2023-11-12T15:14:44.649Z,6.80
2023-11-12T15:20:10.492Z,6.80
2023-11-12T15:25:32.815Z,6.60
2023-11-12T15:30:54.322Z,6.60
2023-11-12T15:36:15.967Z,6.60
2023-11-12T15:41:37.798Z,6.70
2023-11-12T15:46:59.368Z,6.50
2023-11-12T15:52:21.824Z,6.60
2023-11-12T15:57:43.750Z,6.50
2023-11-12T16:03:13.255Z,6.50
2023-11-12T16:08:49.202Z,6.50
2023-11-12T16:14:15.620Z,6.50
2023-11-12T16:19:38.417Z,6.40
2023-11-12T16:25:00.364Z,6.40
2023-11-12T16:30:25.444Z,6.30
2023-11-12T16:35:47.339Z,6.20
2023-11-12T16:41:08.931Z,6.10
2023-11-12T16:46:33.230Z,6.00
2023-11-12T16:51:55.449Z,6.00
2023-11-12T16:57:17.280Z,5.90
2023-11-12T17:02:38.827Z,5.90
2023-11-12T17:08:00.694Z,5.80
2023-11-12T17:13:25.252Z,5.80
2023-11-12T17:18:46.867Z,5.70
2023-11-12T17:24:09.668Z,5.70
2023-11-12T17:29:31.455Z,5.70
2023-11-12T17:34:54.466Z,5.70
2023-11-12T17:40:17.590Z,5.70
2023-11-12T17:45:39.600Z,5.60
2023-11-12T17:51:01.344Z,5.50
2023-11-12T17:56:23.535Z,5.50
2023-11-12T18:01:46.790Z,5.50
2023-11-12T18:07:08.346Z,5.50
2023-11-12T18:12:30.104Z,5.50
2023-11-12T18:17:51.891Z,5.60
2023-11-12T18:23:13.785Z,5.60
2023-11-12T18:28:38.337Z,5.60
2023-11-12T18:34:00.488Z,5.60
2023-11-12T18:39:21.932Z,5.60
2023-11-12T18:44:43.572Z,5.60
2023-11-12T18:50:05.311Z,5.60
2023-11-12T18:55:26.911Z,5.60
2023-11-12T19:00:48.997Z,5.60
2023-11-12T19:06:11.142Z,5.60
2023-11-12T19:11:33.304Z,5.60
2023-11-12T19:16:55.068Z,5.60
2023-11-12T19:22:17.539Z,5.60
2023-11-12T19:27:40.203Z,5.60
2023-11-12T19:33:03.183Z,5.60
2023-11-12T19:38:28.079Z,5.60
2023-11-12T19:43:50.021Z,5.50
2023-11-12T19:49:11.994Z,5.60
2023-11-12T19:54:33.951Z,5.40
2023-11-12T19:59:56.992Z,5.50
2023-11-12T20:05:18.427Z,5.50
2023-11-12T20:10:40.866Z,5.40
2023-11-12T20:16:02.477Z,5.40
2023-11-12T20:21:26.389Z,5.50
2023-11-12T20:26:50.559Z,5.60
2023-11-12T20:32:15.806Z,5.60
2023-11-12T20:37:38.906Z,5.50
2023-11-12T20:43:00.870Z,5.60
2023-11-12T20:48:22.506Z,5.60
2023-11-12T20:53:44.126Z,5.40
2023-11-12T20:59:06.166Z,5.40
2023-11-12T21:04:28.028Z,5.50
2023-11-12T21:09:50.888Z,5.40
2023-11-12T21:15:13.412Z,5.50
2023-11-12T21:20:34.986Z,5.50
2023-11-12T21:25:57.218Z,5.50
2023-11-12T21:31:19.525Z,5.50
2023-11-12T21:36:41.442Z,5.50
2023-11-12T21:42:09.506Z,5.50
2023-11-12T21:47:30.997Z,5.50
2023-11-12T21:52:53.227Z,5.50
2023-11-12T21:58:15.807Z,5.50
2023-11-12T22:03:38.445Z,5.50
2023-11-12T22:09:01.305Z,5.50
2023-11-12T22:14:23.780Z,5.50
2023-11-12T22:19:45.404Z,5.30
2023-11-12T22:25:11.744Z,5.40
2023-11-12T22:30:38.252Z,5.40
2023-11-12T22:36:00.718Z,5.30
2023-11-12T22:41:22.348Z,5.30
2023-11-12T22:46:49.093Z,5.40
2023-11-12T22:52:11.338Z,5.40
2023-11-12T22:57:33.801Z,5.40
2023-11-12T23:02:57.068Z,5.40
2023-11-12T23:08:18.751Z,5.30
2023-11-12T23:13:40.782Z,5.30
2023-11-12T23:19:02.221Z,5.30
2023-11-12T23:24:23.866Z,5.40
2023-11-12T23:29:50.127Z,5.30
2023-11-12T23:35:12.216Z,5.30
2023-11-12T23:40:33.710Z,5.20
2023-11-12T23:45:55.471Z,5.20
2023-11-12T23:51:18.800Z,5.20
2023-11-12T23:56:40.651Z,5.30
